Terminal Aerodrome Forecast
Issued by NWS

Home | Current Version | Previous Version | Text Only | Print | Product List | Glossary Off
Versions: 1 2 3 4 5 6 7 8 9 10 11 12 13

000
FTUS43 KICT 012335
TAFSLN
TAF
KSLN 012335Z 0200/0224 16013KT P6SM SCT100
      TEMPO 0208/0212 BKN100
     FM021500 18017G25KT P6SM SCT100=

USA.gov is the U.S. government's official web portal to all federal, state and local government web resources and services.